sensor_id;sensor_type;location;lat;lon;timestamp;temperature;humidity
31783;DHT22;18351;47.560;9.708;2022-11-24T00:00:50;7.60;99.90
31783;DHT22;18351;47.560;9.708;2022-11-24T00:03:16;7.60;99.90
31783;DHT22;18351;47.560;9.708;2022-11-24T00:05:41;7.60;99.90
31783;DHT22;18351;47.560;9.708;2022-11-24T00:08:07;7.50;99.90
31783;DHT22;18351;47.560;9.708;2022-11-24T00:10:33;7.40;99.90
31783;DHT22;18351;47.560;9.708;2022-11-24T00:12:59;7.40;99.90
31783;DHT22;18351;47.560;9.708;2022-11-24T00:15:24;7.30;99.90
31783;DHT22;18351;47.560;9.708;2022-11-24T00:17:50;7.30;99.90
31783;DHT22;18351;47.560;9.708;2022-11-24T00:20:15;7.40;99.90
31783;DHT22;18351;47.560;9.708;2022-11-24T00:22:41;7.40;99.90
31783;DHT22;18351;47.560;9.708;2022-11-24T00:25:07;7.40;99.90
31783;DHT22;18351;47.560;9.708;2022-11-24T00:27:32;7.40;99.90
31783;DHT22;18351;47.560;9.708;2022-11-24T00:29:58;7.40;99.90
31783;DHT22;18351;47.560;9.708;2022-11-24T00:32:27;7.40;99.90
31783;DHT22;18351;47.560;9.708;2022-11-24T00:34:53;7.40;99.90
31783;DHT22;18351;47.560;9.708;2022-11-24T00:37:18;7.40;99.90
31783;DHT22;18351;47.560;9.708;2022-11-24T00:39:44;7.40;99.90
31783;DHT22;18351;47.560;9.708;2022-11-24T00:42:10;7.40;99.90
31783;DHT22;18351;47.560;9.708;2022-11-24T00:44:35;7.40;99.90
31783;DHT22;18351;47.560;9.708;2022-11-24T00:47:01;7.40;99.90
31783;DHT22;18351;47.560;9.708;2022-11-24T00:49:26;7.40;99.90
31783;DHT22;18351;47.560;9.708;2022-11-24T00:51:52;7.30;99.90
31783;DHT22;18351;47.560;9.708;2022-11-24T00:54:17;7.30;99.90
31783;DHT22;18351;47.560;9.708;2022-11-24T00:56:43;7.30;99.90
31783;DHT22;18351;47.560;9.708;2022-11-24T00:59:09;7.30;99.90
31783;DHT22;18351;47.560;9.708;2022-11-24T01:01:34;7.30;99.90
31783;DHT22;18351;47.560;9.708;2022-11-24T01:04:00;7.30;99.90
31783;DHT22;18351;47.560;9.708;2022-11-24T01:06:27;7.20;99.90
31783;DHT22;18351;47.560;9.708;2022-11-24T01:08:54;7.20;99.90
31783;DHT22;18351;47.560;9.708;2022-11-24T01:11:24;7.20;99.90
31783;DHT22;18351;47.560;9.708;2022-11-24T01:13:57;7.20;99.90
31783;DHT22;18351;47.560;9.708;2022-11-24T01:16:25;7.20;99.90
31783;DHT22;18351;47.560;9.708;2022-11-24T01:18:52;7.10;99.90
31783;DHT22;18351;47.560;9.708;2022-11-24T01:21:18;7.10;99.90
31783;DHT22;18351;47.560;9.708;2022-11-24T01:23:44;7.10;99.90
31783;DHT22;18351;47.560;9.708;2022-11-24T01:26:13;7.10;99.90
31783;DHT22;18351;47.560;9.708;2022-11-24T01:28:40;7.10;99.90
31783;DHT22;18351;47.560;9.708;2022-11-24T01:31:06;7.10;99.90
31783;DHT22;18351;47.560;9.708;2022-11-24T01:33:36;7.10;99.90
31783;DHT22;18351;47.560;9.708;2022-11-24T01:36:02;7.10;99.90
31783;DHT22;18351;47.560;9.708;2022-11-24T01:38:28;7.10;99.90
31783;DHT22;18351;47.560;9.708;2022-11-24T01:41:07;7.10;99.90
31783;DHT22;18351;47.560;9.708;2022-11-24T01:43:33;7.10;99.90
31783;DHT22;18351;47.560;9.708;2022-11-24T01:46:07;7.10;99.90
31783;DHT22;18351;47.560;9.708;2022-11-24T01:48:40;7.00;99.90
31783;DHT22;18351;47.560;9.708;2022-11-24T01:51:17;7.00;99.90
31783;DHT22;18351;47.560;9.708;2022-11-24T01:53:49;7.00;99.90
31783;DHT22;18351;47.560;9.708;2022-11-24T01:56:16;7.00;99.90
31783;DHT22;18351;47.560;9.708;2022-11-24T01:58:43;6.90;99.90
31783;DHT22;18351;47.560;9.708;2022-11-24T02:01:10;6.90;99.90
31783;DHT22;18351;47.560;9.708;2022-11-24T02:03:37;6.80;99.90
31783;DHT22;18351;47.560;9.708;2022-11-24T02:06:08;6.80;99.90
31783;DHT22;18351;47.560;9.708;2022-11-24T02:11:36;6.90;99.90
31783;DHT22;18351;47.560;9.708;2022-11-24T02:14:04;7.00;99.90
31783;DHT22;18351;47.560;9.708;2022-11-24T02:16:31;6.90;99.90
31783;DHT22;18351;47.560;9.708;2022-11-24T02:18:58;6.90;99.90
31783;DHT22;18351;47.560;9.708;2022-11-24T02:21:24;6.90;99.90
31783;DHT22;18351;47.560;9.708;2022-11-24T02:24:12;6.90;99.90
31783;DHT22;18351;47.560;9.708;2022-11-24T02:26:45;6.90;99.90
31783;DHT22;18351;47.560;9.708;2022-11-24T02:29:12;7.00;99.90
31783;DHT22;18351;47.560;9.708;2022-11-24T02:31:48;7.00;99.90
31783;DHT22;18351;47.560;9.708;2022-11-24T02:34:15;7.00;99.90
31783;DHT22;18351;47.560;9.708;2022-11-24T02:36:40;7.00;99.90
31783;DHT22;18351;47.560;9.708;2022-11-24T02:39:11;7.00;99.90
31783;DHT22;18351;47.560;9.708;2022-11-24T02:41:39;7.00;99.90
31783;DHT22;18351;47.560;9.708;2022-11-24T02:44:06;6.90;99.90
31783;DHT22;18351;47.560;9.708;2022-11-24T02:46:32;6.90;99.90
31783;DHT22;18351;47.560;9.708;2022-11-24T02:48:57;7.00;99.90
31783;DHT22;18351;47.560;9.708;2022-11-24T02:51:23;7.00;99.90
31783;DHT22;18351;47.560;9.708;2022-11-24T02:53:48;7.00;99.90
31783;DHT22;18351;47.560;9.708;2022-11-24T02:56:14;7.00;99.90
31783;DHT22;18351;47.560;9.708;2022-11-24T02:58:39;7.10;99.90
31783;DHT22;18351;47.560;9.708;2022-11-24T03:01:05;7.10;99.90
31783;DHT22;18351;47.560;9.708;2022-11-24T03:03:31;7.00;99.90
31783;DHT22;18351;47.560;9.708;2022-11-24T03:05:56;7.00;99.90
31783;DHT22;18351;47.560;9.708;2022-11-24T03:08:22;6.90;99.90
31783;DHT22;18351;47.560;9.708;2022-11-24T03:10:47;7.00;99.90
31783;DHT22;18351;47.560;9.708;2022-11-24T03:13:13;7.00;99.90
31783;DHT22;18351;47.560;9.708;2022-11-24T03:15:39;7.00;99.90
31783;DHT22;18351;47.560;9.708;2022-11-24T03:18:05;7.10;99.90
31783;DHT22;18351;47.560;9.708;2022-11-24T03:20:31;7.00;99.90
31783;DHT22;18351;47.560;9.708;2022-11-24T03:22:56;7.10;99.90
31783;DHT22;18351;47.560;9.708;2022-11-24T03:25:22;7.10;99.90
31783;DHT22;18351;47.560;9.708;2022-11-24T03:27:48;7.10;99.90
31783;DHT22;18351;47.560;9.708;2022-11-24T03:30:14;7.10;99.90
31783;DHT22;18351;47.560;9.708;2022-11-24T03:32:40;7.00;99.90
31783;DHT22;18351;47.560;9.708;2022-11-24T03:35:06;7.10;99.90
31783;DHT22;18351;47.560;9.708;2022-11-24T03:37:32;7.10;99.90
31783;DHT22;18351;47.560;9.708;2022-11-24T03:39:57;7.10;99.90
31783;DHT22;18351;47.560;9.708;2022-11-24T03:42:23;7.10;99.90
31783;DHT22;18351;47.560;9.708;2022-11-24T03:44:49;7.10;99.90
31783;DHT22;18351;47.560;9.708;2022-11-24T03:47:14;7.00;99.90
31783;DHT22;18351;47.560;9.708;2022-11-24T03:49:40;6.90;99.90
31783;DHT22;18351;47.560;9.708;2022-11-24T03:52:06;6.90;99.90
31783;DHT22;18351;47.560;9.708;2022-11-24T03:54:32;6.90;99.90
31783;DHT22;18351;47.560;9.708;2022-11-24T03:56:57;6.90;99.90
31783;DHT22;18351;47.560;9.708;2022-11-24T03:59:23;6.80;99.90
31783;DHT22;18351;47.560;9.708;2022-11-24T04:01:48;6.80;99.90
31783;DHT22;18351;47.560;9.708;2022-11-24T04:04:14;6.90;99.90
31783;DHT22;18351;47.560;9.708;2022-11-24T04:06:40;6.90;99.90
31783;DHT22;18351;47.560;9.708;2022-11-24T04:09:05;6.90;99.90
31783;DHT22;18351;47.560;9.708;2022-11-24T04:11:31;7.00;99.90
31783;DHT22;18351;47.560;9.708;2022-11-24T04:14:15;7.10;99.90
31783;DHT22;18351;47.560;9.708;2022-11-24T04:16:41;7.10;99.90
31783;DHT22;18351;47.560;9.708;2022-11-24T04:19:06;7.10;99.90
31783;DHT22;18351;47.560;9.708;2022-11-24T04:21:32;7.10;99.90
31783;DHT22;18351;47.560;9.708;2022-11-24T04:23:57;7.20;99.90
31783;DHT22;18351;47.560;9.708;2022-11-24T04:26:23;7.10;99.90
31783;DHT22;18351;47.560;9.708;2022-11-24T04:28:48;7.10;99.90
31783;DHT22;18351;47.560;9.708;2022-11-24T04:31:14;7.20;99.90
31783;DHT22;18351;47.560;9.708;2022-11-24T04:33:40;7.10;99.90
31783;DHT22;18351;47.560;9.708;2022-11-24T04:36:05;7.10;99.90
31783;DHT22;18351;47.560;9.708;2022-11-24T04:38:31;7.10;99.90
31783;DHT22;18351;47.560;9.708;2022-11-24T04:41:03;7.10;99.90
31783;DHT22;18351;47.560;9.708;2022-11-24T04:43:30;7.10;99.90
31783;DHT22;18351;47.560;9.708;2022-11-24T04:45:58;7.10;99.90
31783;DHT22;18351;47.560;9.708;2022-11-24T04:48:24;7.10;99.90
31783;DHT22;18351;47.560;9.708;2022-11-24T04:50:50;7.20;99.90
31783;DHT22;18351;47.560;9.708;2022-11-24T04:53:15;7.20;99.90
31783;DHT22;18351;47.560;9.708;2022-11-24T04:55:41;7.10;99.90
31783;DHT22;18351;47.560;9.708;2022-11-24T04:58:10;7.10;99.90
31783;DHT22;18351;47.560;9.708;2022-11-24T05:00:36;7.20;99.90
31783;DHT22;18351;47.560;9.708;2022-11-24T05:03:03;7.20;99.90
31783;DHT22;18351;47.560;9.708;2022-11-24T05:05:28;7.20;99.90
31783;DHT22;18351;47.560;9.708;2022-11-24T05:07:54;7.20;99.90
31783;DHT22;18351;47.560;9.708;2022-11-24T05:10:20;7.20;99.90
31783;DHT22;18351;47.560;9.708;2022-11-24T05:13:05;7.10;99.90
31783;DHT22;18351;47.560;9.708;2022-11-24T05:15:31;7.00;99.90
31783;DHT22;18351;47.560;9.708;2022-11-24T05:17:57;7.00;99.90
31783;DHT22;18351;47.560;9.708;2022-11-24T05:20:23;6.90;99.90
31783;DHT22;18351;47.560;9.708;2022-11-24T05:22:49;6.90;99.90
31783;DHT22;18351;47.560;9.708;2022-11-24T05:25:15;6.90;99.90
31783;DHT22;18351;47.560;9.708;2022-11-24T05:27:41;6.90;99.90
31783;DHT22;18351;47.560;9.708;2022-11-24T05:30:07;6.90;99.90
31783;DHT22;18351;47.560;9.708;2022-11-24T05:32:33;6.90;99.90
31783;DHT22;18351;47.560;9.708;2022-11-24T05:34:59;6.90;99.90
31783;DHT22;18351;47.560;9.708;2022-11-24T05:37:27;6.90;99.90
31783;DHT22;18351;47.560;9.708;2022-11-24T05:39:53;7.00;99.90
31783;DHT22;18351;47.560;9.708;2022-11-24T05:42:19;7.00;99.90
31783;DHT22;18351;47.560;9.708;2022-11-24T05:45:04;7.00;99.90
31783;DHT22;18351;47.560;9.708;2022-11-24T05:47:30;6.90;99.90
31783;DHT22;18351;47.560;9.708;2022-11-24T05:49:55;7.00;99.90
31783;DHT22;18351;47.560;9.708;2022-11-24T05:52:21;6.90;99.90
31783;DHT22;18351;47.560;9.708;2022-11-24T05:54:47;7.00;99.90
31783;DHT22;18351;47.560;9.708;2022-11-24T05:57:13;6.90;99.90
31783;DHT22;18351;47.560;9.708;2022-11-24T05:59:38;7.00;99.90
31783;DHT22;18351;47.560;9.708;2022-11-24T06:02:04;7.00;99.90
31783;DHT22;18351;47.560;9.708;2022-11-24T06:04:30;7.00;99.90
31783;DHT22;18351;47.560;9.708;2022-11-24T06:06:56;7.00;99.90
31783;DHT22;18351;47.560;9.708;2022-11-24T06:09:21;6.90;99.90
31783;DHT22;18351;47.560;9.708;2022-11-24T06:11:47;7.00;99.90
31783;DHT22;18351;47.560;9.708;2022-11-24T06:14:13;6.90;99.90
31783;DHT22;18351;47.560;9.708;2022-11-24T06:16:39;6.90;99.90
31783;DHT22;18351;47.560;9.708;2022-11-24T06:19:05;6.90;99.90
31783;DHT22;18351;47.560;9.708;2022-11-24T06:21:31;6.90;99.90
31783;DHT22;18351;47.560;9.708;2022-11-24T06:23:57;6.90;99.90
31783;DHT22;18351;47.560;9.708;2022-11-24T06:26:22;6.90;99.90
31783;DHT22;18351;47.560;9.708;2022-11-24T06:28:48;6.90;99.90
31783;DHT22;18351;47.560;9.708;2022-11-24T06:31:13;6.90;99.90
31783;DHT22;18351;47.560;9.708;2022-11-24T06:33:39;6.90;99.90
31783;DHT22;18351;47.560;9.708;2022-11-24T06:36:07;6.90;99.90
31783;DHT22;18351;47.560;9.708;2022-11-24T06:38:34;6.90;99.90
31783;DHT22;18351;47.560;9.708;2022-11-24T06:41:12;6.80;99.90
31783;DHT22;18351;47.560;9.708;2022-11-24T06:43:38;6.80;99.90
31783;DHT22;18351;47.560;9.708;2022-11-24T06:46:04;6.70;99.90
31783;DHT22;18351;47.560;9.708;2022-11-24T06:48:30;6.60;99.90
31783;DHT22;18351;47.560;9.708;2022-11-24T06:51:00;6.60;99.90
31783;DHT22;18351;47.560;9.708;2022-11-24T06:53:29;6.60;99.90
31783;DHT22;18351;47.560;9.708;2022-11-24T06:55:59;6.60;99.90
31783;DHT22;18351;47.560;9.708;2022-11-24T06:58:26;6.60;99.90
31783;DHT22;18351;47.560;9.708;2022-11-24T07:00:52;6.60;99.90
31783;DHT22;18351;47.560;9.708;2022-11-24T07:03:18;6.60;99.90
31783;DHT22;18351;47.560;9.708;2022-11-24T07:05:44;6.70;99.90
31783;DHT22;18351;47.560;9.708;2022-11-24T07:08:10;6.70;99.90
31783;DHT22;18351;47.560;9.708;2022-11-24T07:10:36;6.80;99.90
31783;DHT22;18351;47.560;9.708;2022-11-24T07:13:02;6.90;99.90
31783;DHT22;18351;47.560;9.708;2022-11-24T07:15:29;6.90;99.90
31783;DHT22;18351;47.560;9.708;2022-11-24T07:17:54;6.90;99.90
31783;DHT22;18351;47.560;9.708;2022-11-24T07:20:20;6.90;99.90
31783;DHT22;18351;47.560;9.708;2022-11-24T07:22:46;6.90;99.90
31783;DHT22;18351;47.560;9.708;2022-11-24T07:25:11;7.00;99.90
31783;DHT22;18351;47.560;9.708;2022-11-24T07:27:39;7.00;99.90
31783;DHT22;18351;47.560;9.708;2022-11-24T07:30:05;7.10;99.90
31783;DHT22;18351;47.560;9.708;2022-11-24T07:32:31;7.00;99.90
31783;DHT22;18351;47.560;9.708;2022-11-24T07:34:57;7.10;99.90
31783;DHT22;18351;47.560;9.708;2022-11-24T07:37:22;7.20;99.90
31783;DHT22;18351;47.560;9.708;2022-11-24T07:39:48;7.30;99.90
31783;DHT22;18351;47.560;9.708;2022-11-24T07:42:14;7.30;99.90
31783;DHT22;18351;47.560;9.708;2022-11-24T07:44:39;7.30;99.90
31783;DHT22;18351;47.560;9.708;2022-11-24T07:47:05;7.40;99.90
31783;DHT22;18351;47.560;9.708;2022-11-24T07:49:30;7.40;99.90
31783;DHT22;18351;47.560;9.708;2022-11-24T07:51:56;7.40;99.90
31783;DHT22;18351;47.560;9.708;2022-11-24T07:54:21;7.50;99.90
31783;DHT22;18351;47.560;9.708;2022-11-24T07:56:48;7.50;99.90
31783;DHT22;18351;47.560;9.708;2022-11-24T07:59:13;7.50;99.90
31783;DHT22;18351;47.560;9.708;2022-11-24T08:01:39;7.50;99.90
31783;DHT22;18351;47.560;9.708;2022-11-24T08:04:05;7.30;99.90
31783;DHT22;18351;47.560;9.708;2022-11-24T08:06:31;7.40;99.90
31783;DHT22;18351;47.560;9.708;2022-11-24T08:08:57;7.40;99.90
31783;DHT22;18351;47.560;9.708;2022-11-24T08:11:23;7.30;99.90
31783;DHT22;18351;47.560;9.708;2022-11-24T08:13:49;7.40;99.90
31783;DHT22;18351;47.560;9.708;2022-11-24T08:16:16;7.40;99.90
31783;DHT22;18351;47.560;9.708;2022-11-24T08:18:47;7.40;99.90
31783;DHT22;18351;47.560;9.708;2022-11-24T08:21:13;7.40;99.90
31783;DHT22;18351;47.560;9.708;2022-11-24T08:23:39;7.50;99.90
31783;DHT22;18351;47.560;9.708;2022-11-24T08:26:06;7.50;99.90
31783;DHT22;18351;47.560;9.708;2022-11-24T08:28:34;7.50;99.90
31783;DHT22;18351;47.560;9.708;2022-11-24T08:31:05;7.40;99.90
31783;DHT22;18351;47.560;9.708;2022-11-24T08:33:31;7.50;99.90
31783;DHT22;18351;47.560;9.708;2022-11-24T08:36:11;7.50;99.90
31783;DHT22;18351;47.560;9.708;2022-11-24T08:38:37;7.40;99.90
31783;DHT22;18351;47.560;9.708;2022-11-24T08:41:05;7.50;99.90
31783;DHT22;18351;47.560;9.708;2022-11-24T08:43:31;7.50;99.90
31783;DHT22;18351;47.560;9.708;2022-11-24T08:46:17;7.50;99.90
31783;DHT22;18351;47.560;9.708;2022-11-24T08:48:45;7.50;99.90
31783;DHT22;18351;47.560;9.708;2022-11-24T08:51:14;7.60;99.90
31783;DHT22;18351;47.560;9.708;2022-11-24T08:53:40;7.70;99.90
31783;DHT22;18351;47.560;9.708;2022-11-24T08:56:07;7.70;99.90
31783;DHT22;18351;47.560;9.708;2022-11-24T08:58:33;7.80;99.90
31783;DHT22;18351;47.560;9.708;2022-11-24T09:01:14;7.90;99.90
31783;DHT22;18351;47.560;9.708;2022-11-24T09:03:41;8.00;99.90
31783;DHT22;18351;47.560;9.708;2022-11-24T09:06:08;8.00;99.90
31783;DHT22;18351;47.560;9.708;2022-11-24T09:08:34;8.20;99.90
31783;DHT22;18351;47.560;9.708;2022-11-24T09:11:02;8.30;99.90
31783;DHT22;18351;47.560;9.708;2022-11-24T09:13:28;8.30;99.90
31783;DHT22;18351;47.560;9.708;2022-11-24T09:15:54;8.30;99.90
31783;DHT22;18351;47.560;9.708;2022-11-24T09:18:20;8.30;99.90
31783;DHT22;18351;47.560;9.708;2022-11-24T09:20:45;8.30;99.90
31783;DHT22;18351;47.560;9.708;2022-11-24T09:23:11;8.20;99.90
31783;DHT22;18351;47.560;9.708;2022-11-24T09:25:37;8.10;99.90
31783;DHT22;18351;47.560;9.708;2022-11-24T09:28:02;8.00;99.90
31783;DHT22;18351;47.560;9.708;2022-11-24T09:30:28;8.00;99.90
31783;DHT22;18351;47.560;9.708;2022-11-24T09:32:55;7.90;99.90
31783;DHT22;18351;47.560;9.708;2022-11-24T09:35:20;7.80;99.90
31783;DHT22;18351;47.560;9.708;2022-11-24T09:37:46;7.70;99.90
31783;DHT22;18351;47.560;9.708;2022-11-24T09:40:13;7.70;99.90
31783;DHT22;18351;47.560;9.708;2022-11-24T09:48:03;7.70;99.90
31783;DHT22;18351;47.560;9.708;2022-11-24T09:50:34;7.80;99.90
31783;DHT22;18351;47.560;9.708;2022-11-24T09:55:47;7.90;99.90
31783;DHT22;18351;47.560;9.708;2022-11-24T09:58:31;8.00;99.90
31783;DHT22;18351;47.560;9.708;2022-11-24T10:00:59;8.00;99.90
31783;DHT22;18351;47.560;9.708;2022-11-24T10:03:33;8.10;99.90
31783;DHT22;18351;47.560;9.708;2022-11-24T10:06:00;8.20;99.90
31783;DHT22;18351;47.560;9.708;2022-11-24T10:11:05;8.40;99.90
31783;DHT22;18351;47.560;9.708;2022-11-24T10:19:18;8.50;99.90
31783;DHT22;18351;47.560;9.708;2022-11-24T10:21:58;8.60;99.90
31783;DHT22;18351;47.560;9.708;2022-11-24T10:24:58;8.60;99.90
31783;DHT22;18351;47.560;9.708;2022-11-24T10:27:55;8.70;99.90
31783;DHT22;18351;47.560;9.708;2022-11-24T10:30:22;8.70;99.90
31783;DHT22;18351;47.560;9.708;2022-11-24T10:32:57;8.70;99.90
31783;DHT22;18351;47.560;9.708;2022-11-24T10:35:33;8.70;99.90
31783;DHT22;18351;47.560;9.708;2022-11-24T10:38:49;8.70;99.90
31783;DHT22;18351;47.560;9.708;2022-11-24T10:41:02;8.80;99.90
31783;DHT22;18351;47.560;9.708;2022-11-24T10:43:29;8.80;99.90
31783;DHT22;18351;47.560;9.708;2022-11-24T10:46:10;8.80;99.90
31783;DHT22;18351;47.560;9.708;2022-11-24T10:48:49;8.80;99.90
31783;DHT22;18351;47.560;9.708;2022-11-24T10:51:58;8.80;99.90
31783;DHT22;18351;47.560;9.708;2022-11-24T10:54:22;8.70;99.90
31783;DHT22;18351;47.560;9.708;2022-11-24T10:56:53;8.70;99.90
31783;DHT22;18351;47.560;9.708;2022-11-24T10:59:39;8.60;99.90
31783;DHT22;18351;47.560;9.708;2022-11-24T11:04:50;8.70;99.90
31783;DHT22;18351;47.560;9.708;2022-11-24T11:07:21;8.70;99.90
31783;DHT22;18351;47.560;9.708;2022-11-24T11:09:47;8.80;99.90
31783;DHT22;18351;47.560;9.708;2022-11-24T11:12:27;8.80;99.90
31783;DHT22;18351;47.560;9.708;2022-11-24T11:14:54;8.80;99.90
31783;DHT22;18351;47.560;9.708;2022-11-24T11:17:33;8.80;99.90
31783;DHT22;18351;47.560;9.708;2022-11-24T11:20:24;8.70;99.90
31783;DHT22;18351;47.560;9.708;2022-11-24T11:22:51;8.70;99.90
31783;DHT22;18351;47.560;9.708;2022-11-24T11:25:23;8.60;99.90
31783;DHT22;18351;47.560;9.708;2022-11-24T11:28:30;8.50;99.90
31783;DHT22;18351;47.560;9.708;2022-11-24T11:31:03;8.50;99.90
31783;DHT22;18351;47.560;9.708;2022-11-24T11:33:31;8.50;99.90
31783;DHT22;18351;47.560;9.708;2022-11-24T11:35:58;8.50;99.90
31783;DHT22;18351;47.560;9.708;2022-11-24T11:38:28;8.50;99.90
31783;DHT22;18351;47.560;9.708;2022-11-24T11:40:57;8.50;99.90
31783;DHT22;18351;47.560;9.708;2022-11-24T11:43:29;8.50;99.90
31783;DHT22;18351;47.560;9.708;2022-11-24T11:48:35;8.50;99.90
31783;DHT22;18351;47.560;9.708;2022-11-24T11:56:28;8.50;99.90
31783;DHT22;18351;47.560;9.708;2022-11-24T12:04:59;8.50;99.90
31783;DHT22;18351;47.560;9.708;2022-11-24T12:07:44;8.50;99.90
31783;DHT22;18351;47.560;9.708;2022-11-24T12:15:25;8.50;99.90
31783;DHT22;18351;47.560;9.708;2022-11-24T12:23:20;8.50;99.90
31783;DHT22;18351;47.560;9.708;2022-11-24T12:31:50;8.60;99.90
31783;DHT22;18351;47.560;9.708;2022-11-24T12:34:23;8.60;99.90
31783;DHT22;18351;47.560;9.708;2022-11-24T12:37:02;8.70;99.90
31783;DHT22;18351;47.560;9.708;2022-11-24T12:39:53;8.80;99.90
31783;DHT22;18351;47.560;9.708;2022-11-24T12:47:29;9.00;99.90
31783;DHT22;18351;47.560;9.708;2022-11-24T12:50:13;9.00;99.90
31783;DHT22;18351;47.560;9.708;2022-11-24T12:53:11;8.90;99.90
31783;DHT22;18351;47.560;9.708;2022-11-24T12:55:38;9.00;99.90
31783;DHT22;18351;47.560;9.708;2022-11-24T12:58:27;8.90;99.90
31783;DHT22;18351;47.560;9.708;2022-11-24T13:04:15;9.00;99.90
31783;DHT22;18351;47.560;9.708;2022-11-24T13:06:50;9.10;99.90
31783;DHT22;18351;47.560;9.708;2022-11-24T13:09:17;9.10;99.90
31783;DHT22;18351;47.560;9.708;2022-11-24T13:11:44;9.20;99.90
31783;DHT22;18351;47.560;9.708;2022-11-24T13:14:29;9.20;99.90
31783;DHT22;18351;47.560;9.708;2022-11-24T13:16:56;9.30;99.90
31783;DHT22;18351;47.560;9.708;2022-11-24T13:19:24;9.40;99.90
31783;DHT22;18351;47.560;9.708;2022-11-24T13:22:00;9.40;99.90
31783;DHT22;18351;47.560;9.708;2022-11-24T13:24:28;9.40;99.90
31783;DHT22;18351;47.560;9.708;2022-11-24T13:29:47;9.40;99.90
31783;DHT22;18351;47.560;9.708;2022-11-24T13:42:29;9.50;99.90
31783;DHT22;18351;47.560;9.708;2022-11-24T13:44:59;9.50;99.90
31783;DHT22;18351;47.560;9.708;2022-11-24T13:47:44;9.50;99.90
31783;DHT22;18351;47.560;9.708;2022-11-24T13:57:45;10.20;99.90
31783;DHT22;18351;47.560;9.708;2022-11-24T14:00:32;10.40;99.90
31783;DHT22;18351;47.560;9.708;2022-11-24T14:03:04;10.50;99.90
31783;DHT22;18351;47.560;9.708;2022-11-24T14:05:46;10.50;99.90
31783;DHT22;18351;47.560;9.708;2022-11-24T14:08:33;10.40;99.90
31783;DHT22;18351;47.560;9.708;2022-11-24T14:11:00;10.40;99.90
31783;DHT22;18351;47.560;9.708;2022-11-24T14:13:27;10.40;99.90
31783;DHT22;18351;47.560;9.708;2022-11-24T14:18:31;10.70;99.90
31783;DHT22;18351;47.560;9.708;2022-11-24T14:20:58;10.70;99.90
31783;DHT22;18351;47.560;9.708;2022-11-24T14:23:24;10.70;99.90
31783;DHT22;18351;47.560;9.708;2022-11-24T14:25:51;10.70;99.90
31783;DHT22;18351;47.560;9.708;2022-11-24T14:28:25;10.70;99.90
31783;DHT22;18351;47.560;9.708;2022-11-24T14:31:08;10.70;99.90
31783;DHT22;18351;47.560;9.708;2022-11-24T14:33:34;10.70;99.90
31783;DHT22;18351;47.560;9.708;2022-11-24T14:36:00;10.60;99.90
31783;DHT22;18351;47.560;9.708;2022-11-24T14:38:26;10.50;99.90
31783;DHT22;18351;47.560;9.708;2022-11-24T14:40:53;10.40;99.90
31783;DHT22;18351;47.560;9.708;2022-11-24T14:43:20;10.40;99.90
31783;DHT22;18351;47.560;9.708;2022-11-24T14:45:53;10.30;99.90
31783;DHT22;18351;47.560;9.708;2022-11-24T14:48:26;10.20;99.90
31783;DHT22;18351;47.560;9.708;2022-11-24T14:50:54;10.10;99.90
31783;DHT22;18351;47.560;9.708;2022-11-24T14:53:28;10.10;99.90
31783;DHT22;18351;47.560;9.708;2022-11-24T14:58:47;10.00;99.90
31783;DHT22;18351;47.560;9.708;2022-11-24T15:04:11;10.00;99.90
31783;DHT22;18351;47.560;9.708;2022-11-24T15:06:37;9.80;99.90
31783;DHT22;18351;47.560;9.708;2022-11-24T15:09:03;9.80;99.90
31783;DHT22;18351;47.560;9.708;2022-11-24T15:11:30;9.80;99.90
31783;DHT22;18351;47.560;9.708;2022-11-24T15:13:56;9.70;99.90
31783;DHT22;18351;47.560;9.708;2022-11-24T15:16:24;9.70;99.90
31783;DHT22;18351;47.560;9.708;2022-11-24T15:19:00;9.50;99.90
31783;DHT22;18351;47.560;9.708;2022-11-24T15:21:34;9.40;99.90
31783;DHT22;18351;47.560;9.708;2022-11-24T15:24:14;9.30;99.90
31783;DHT22;18351;47.560;9.708;2022-11-24T15:26:42;9.10;99.90
31783;DHT22;18351;47.560;9.708;2022-11-24T15:29:08;8.90;99.90
31783;DHT22;18351;47.560;9.708;2022-11-24T15:31:34;8.70;99.90
31783;DHT22;18351;47.560;9.708;2022-11-24T15:33:59;8.50;99.90
31783;DHT22;18351;47.560;9.708;2022-11-24T15:36:25;8.40;99.90
31783;DHT22;18351;47.560;9.708;2022-11-24T15:38:50;8.30;99.90
31783;DHT22;18351;47.560;9.708;2022-11-24T15:41:21;8.20;99.90
31783;DHT22;18351;47.560;9.708;2022-11-24T15:43:47;8.00;99.90
31783;DHT22;18351;47.560;9.708;2022-11-24T15:46:13;8.00;99.90
31783;DHT22;18351;47.560;9.708;2022-11-24T15:48:38;7.90;99.90
31783;DHT22;18351;47.560;9.708;2022-11-24T15:51:11;7.80;99.90
31783;DHT22;18351;47.560;9.708;2022-11-24T15:53:47;7.80;99.90
31783;DHT22;18351;47.560;9.708;2022-11-24T15:56:39;7.60;99.90
31783;DHT22;18351;47.560;9.708;2022-11-24T15:59:17;7.60;99.90
31783;DHT22;18351;47.560;9.708;2022-11-24T16:01:43;7.60;99.90
31783;DHT22;18351;47.560;9.708;2022-11-24T16:04:10;7.50;99.90
31783;DHT22;18351;47.560;9.708;2022-11-24T16:06:37;7.50;99.90
31783;DHT22;18351;47.560;9.708;2022-11-24T16:09:03;7.40;99.90
31783;DHT22;18351;47.560;9.708;2022-11-24T16:11:28;7.30;99.90
31783;DHT22;18351;47.560;9.708;2022-11-24T16:13:54;7.30;99.90
31783;DHT22;18351;47.560;9.708;2022-11-24T16:16:20;7.30;99.90
31783;DHT22;18351;47.560;9.708;2022-11-24T16:18:46;7.20;99.90
31783;DHT22;18351;47.560;9.708;2022-11-24T16:21:12;7.20;99.90
31783;DHT22;18351;47.560;9.708;2022-11-24T16:23:37;7.20;99.90
31783;DHT22;18351;47.560;9.708;2022-11-24T16:26:03;7.20;99.90
31783;DHT22;18351;47.560;9.708;2022-11-24T16:28:29;7.10;99.90
31783;DHT22;18351;47.560;9.708;2022-11-24T16:30:55;7.20;99.90
31783;DHT22;18351;47.560;9.708;2022-11-24T16:33:21;7.20;99.90
31783;DHT22;18351;47.560;9.708;2022-11-24T16:35:47;7.10;99.90
31783;DHT22;18351;47.560;9.708;2022-11-24T16:38:17;7.00;99.90
31783;DHT22;18351;47.560;9.708;2022-11-24T16:40:50;6.90;99.90
31783;DHT22;18351;47.560;9.708;2022-11-24T16:43:15;7.00;99.90
31783;DHT22;18351;47.560;9.708;2022-11-24T16:45:41;7.00;99.90
31783;DHT22;18351;47.560;9.708;2022-11-24T16:48:06;7.00;99.90
31783;DHT22;18351;47.560;9.708;2022-11-24T16:50:32;7.00;99.90
31783;DHT22;18351;47.560;9.708;2022-11-24T16:52:58;6.80;99.90
31783;DHT22;18351;47.560;9.708;2022-11-24T16:55:23;6.90;99.90
31783;DHT22;18351;47.560;9.708;2022-11-24T16:57:49;6.90;99.90
31783;DHT22;18351;47.560;9.708;2022-11-24T17:00:14;6.90;99.90
31783;DHT22;18351;47.560;9.708;2022-11-24T17:02:40;6.90;99.90
31783;DHT22;18351;47.560;9.708;2022-11-24T17:05:06;6.80;99.90
31783;DHT22;18351;47.560;9.708;2022-11-24T17:07:32;6.70;99.90
31783;DHT22;18351;47.560;9.708;2022-11-24T17:09:57;6.60;99.90
31783;DHT22;18351;47.560;9.708;2022-11-24T17:12:25;6.60;99.90
31783;DHT22;18351;47.560;9.708;2022-11-24T17:14:50;6.50;99.90
31783;DHT22;18351;47.560;9.708;2022-11-24T17:17:16;6.50;99.90
31783;DHT22;18351;47.560;9.708;2022-11-24T17:19:41;6.50;99.90
31783;DHT22;18351;47.560;9.708;2022-11-24T17:22:08;6.40;99.90
31783;DHT22;18351;47.560;9.708;2022-11-24T17:24:33;6.40;99.90